NEW HOGAN LAKE (NHG)

Elevation: 554' · CALAVERAS R basin · Operator: US Army Corps of Engineers

Provisional data, subject to change.
Query executed Sunday at 20:36:28   clock

Select a sensor type for a plot of data.
Note: Reservoir Flows are daily averages.

Earlier

Date RES ELE    STORAGE    RES CHG    TOC STO    ABV TOC    OUTFLOW    INFLOW    FNF    PPT INC    TEMP MN    TEMP MX   
 FEET   AF   AF   AF   AF   CFS   CFS   CFS   INCHES   DEG F   DEG F  
11/22/2014 611.84 40623 -- 173739 -- 10 6 6 0.17 11 14
11/23/2014 611.82 40596 -- 171034 -- 10 -1 -1 0.01 4 13
11/24/2014 611.79 40557 -39 168330 -127772 10 -6 -6 0.00 4 16
11/25/2014 611.81 40583 26 165625 -125042 10 28 28 0.01 5 18
11/26/2014 611.79 40557 -26 162920 -122363 10 2 2 0.00 6 21
11/27/2014 611.75 40505 -52 160215 -119710 10 -11 -11 0.00 8 21
11/28/2014 611.73 40479 -26 157510 -117031 10 2 2 0.00 7 20
11/29/2014 611.70 40439 -40 154805 -114366 10 -6 -6 0.04 9 17
11/30/2014 611.72 40465 26 152100 -111635 10 26 -- 0.38 10 15
12/01/2014 611.71 40452 -13 152100 -111648 10 7 7 0.02 10 21
12/02/2014 611.76 40518 66 152100 -111582 10 45 45 0.52 10 16
12/03/2014 611.81 40583 65 152100 -111517 9 45 45 0.62 14 18
12/04/2014 611.80 40570 -13 152100 -111530 9 6 6 0.13 12 20
12/05/2014 611.76 40518 -52 152100 -111582 8 -15 -15 0.08 11 19
12/06/2014 611.81 40583 65 152100 -111517 8 44 44 0.02 12 21
12/07/2014 611.79 40557 -26 152100 -111543 8 -3 -3 0.00 9 17
12/08/2014 611.73 40479 -78 152100 -111621 8 -29 -29 0.00 8 18
12/09/2014 611.80 40570 91 152100 -111530 8 56 56 0.00 8 16
12/10/2014 611.79 40557 -13 152100 -111543 8 5 -- 0.00 8 17
12/11/2014 612.54 41547 990 152100 -110553 12 515 -- 3.16 9 19
12/12/2014 615.15 45106 3559 152100 -106994 16 1812 1812 1.02 8 12
12/13/2014 615.70 45879 773 152100 -106221 9 400 400 0.00 7 11
12/14/2014 615.94 46219 340 152100 -105881 8 182 182 0.00 6 12
12/15/2014 616.05 46375 156 152100 -105725 9 89 -- 0.37 8 11
12/16/2014 616.22 46617 242 152100 -105483 15 140 -- 0.41 8 16
12/17/2014 616.34 46788 171 152100 -105312 28 116 -- 0.02 8 12
12/18/2014 616.43 46917 129 152100 -105183 38 106 -- 0.00 8 16
12/19/2014 616.62 47189 272 152100 -104911 39 -- -- -- 10 13
12/20/2014 617.23 48070 881 152100 -104030 -- -- -- -- -- --
12/21/2014 -- -- -- -- -- -- -- -- -- -- --

Later | Latest

Warning! This data is preliminary and subject to revision.

Show NHG Map | Plot NHG Data | 1 Month NHG Data | Real-Time NHG Data | NHG Info